Baltimore, Maryland
Traffic Map
Current Weather Conditions
Baltimore, Maryland
Few Clouds
Few Clouds

Feels Like: -3°
Wind Chill: -3° Ceiling: Unl
Heat Index: Visibility: 10mi
Dew Point: -11° Wind: 10mph
Humidity: 42% Direction: 190° (S)
Pressure: 30.5in Gusts: 0mph
Raw Report DataKBWI 221454Z 19009KT 10SM FEW200 01/M11 A3050 RMK AO2 SLP329 T00111106 58005
Traffic Incident Summary
Active as of:
Severity:
Category:
InformationThere was an issue retrieving the traffic information for this location. Please try a different location or try again shortly.
Advertisements
Track Severe Weather on mobile